Time;durP1;ratioP1;P1;durP2;ratioP2;P2;SDS_P1;SDS_P2;PMS_P1;PMS_P2;Temp;Humidity;BMP_temperature;BMP_pressure;BME280_temperature;BME280_humidity;BME280_pressure;Samples;Min_cycle;Max_cycle;Signal;HPM_P1;HPM_P2
2023/05/08 00:00:08;;;;;;;;;;;;;;;;;;5107773;28;19912;-45
2023/05/08 05:08:38;;;;;;;;;;;;;;;;;;5099929;28;20410;-44
2023/05/08 05:11:04;;;;;;;;;;;;;;;;;;5089157;28;19912;-44
2023/05/08 05:13:30;;;;;;;;;;;;;;;;;;5089240;28;20002;-44
2023/05/08 05:15:56;;;;;;;;;;;;;;;;;;5088298;28;20421;-46
2023/05/08 05:18:23;;;;;;;;;;;;;;;;;;5088889;28;20224;-45
2023/05/08 05:20:49;;;;;;;;;;;;;;;;;;5089120;28;19914;-44
2023/05/08 05:23:15;;;;;;;;;;;;;;;;;;5088793;28;19908;-44
2023/05/08 05:25:40;;;;;;;;;;;;;;;;;;5088959;28;19930;-45
2023/05/08 05:28:06;;;;;;;;;;;;;;;;;;5088661;28;19916;-45
2023/05/08 05:30:32;;;;;;;;;;;;;;;;;;5088718;28;19966;-47
2023/05/08 05:32:58;;;;;;;;;;;;;;;;;;5084896;28;19939;-46
2023/05/08 05:35:24;;;;;;;;;;;;;;;;;;5089814;28;19916;-45
2023/05/08 05:37:50;;;;;;;;;;;;;;;;;;5089876;28;19908;-44
2023/05/08 05:40:16;;;;;;;;;;;;;;;;;;5090202;28;19908;-45
2023/05/08 05:42:42;;;;;;;;;;;;;;;;;;5089702;28;19912;-45
2023/05/08 05:45:08;;;;;;;;;;;;;;;;;;5089841;28;20007;-45
2023/05/08 05:47:34;;;;;;;;;;;;;;;;;;5089136;28;19908;-44
2023/05/08 05:50:00;;;;;;;;;;;;;;;;;;5089321;28;20385;-44
2023/05/08 05:52:26;;;;;;;;;;;;;;;;;;5089260;28;19915;-45
2023/05/08 05:54:52;;;;;;;;;;;;;;;;;;5089707;28;19912;-44
2023/05/08 05:57:18;;;;;;;;;;;;;;;;;;5089359;28;19935;-47
2023/05/08 05:59:44;;;;;;;;;;;;;;;;;;5089322;28;20016;-45
2023/05/08 06:02:17;;;;;;;;;;;;;;;;;;5089385;28;19912;-46
2023/05/08 06:04:42;;;;;;;;;;;;;;;;;;5089118;28;20656;-44
2023/05/08 06:07:09;;;;;;;;;;;;;;;;;;5089284;28;19918;-44
2023/05/08 06:09:35;;;;;;;;;;;;;;;;;;5101905;28;19915;-44
2023/05/08 06:12:01;;;;;;;;;;;;;;;;;;5109776;28;19942;-45
2023/05/08 06:14:27;;;;;;;;;;;;;;;;;;5109075;28;20024;-44
2023/05/08 06:16:53;;;;;;;;;;;;;;;;;;5109603;28;19912;-45
2023/05/08 06:19:19;;;;;;;;;;;;;;;;;;5109938;28;19908;-46
2023/05/08 06:21:45;;;;;;;;;;;;;;;;;;5108755;28;19912;-45
2023/05/08 06:24:11;;;;;;;;;;;;;;;;;;5108187;28;19908;-45
2023/05/08 06:26:36;;;;;;;;;;;;;;;;;;5107796;28;19918;-44
2023/05/08 06:29:03;;;;;;;;;;;;;;;;;;5106915;28;20672;-47
2023/05/08 06:31:29;;;;;;;;;;;;;;;;;;5107985;28;19951;-46
2023/05/08 06:33:55;;;;;;;;;;;;;;;;;;5107753;28;19966;-47
2023/05/08 06:36:21;;;;;;;;;;;;;;;;;;5108163;28;19930;-44
2023/05/08 06:38:47;;;;;;;;;;;;;;;;;;5108501;28;19982;-45
2023/05/08 06:41:13;;;;;;;;;;;;;;;;;;5108145;28;20578;-46
2023/05/08 06:43:39;;;;;;;;;;;;;;;;;;5107645;28;19916;-45
2023/05/08 06:46:04;;;;;;;;;;;;;;;;;;5108177;28;19955;-47
2023/05/08 06:48:30;;;;;;;;;;;;;;;;;;5106911;28;19912;-45
2023/05/08 06:50:57;;;;;;;;;;;;;;;;;;5105135;28;19912;-44
2023/05/08 06:53:23;;;;;;;;;;;;;;;;;;5109028;28;19918;-44
2023/05/08 06:55:49;;;;;;;;;;;;;;;;;;5109808;28;19908;-45
2023/05/08 06:58:16;;;;;;;;;;;;;;;;;;5107181;28;20302;-44
2023/05/08 07:00:42;;;;;;;;;;;;;;;;;;5095392;28;19936;-46
2023/05/08 07:03:08;;;;;;;;;;;;;;;;;;5108578;28;19916;-45
2023/05/08 07:05:34;;;;;;;;;;;;;;;;;;5110070;28;20024;-44
2023/05/08 07:08:00;;;;;;;;;;;;;;;;;;5109859;28;19915;-46
2023/05/08 07:10:26;;;;;;;;;;;;;;;;;;5110053;28;19926;-48
2023/05/08 07:12:52;;;;;;;;;;;;;;;;;;5109605;28;20005;-44
2023/05/08 07:15:18;;;;;;;;;;;;;;;;;;5109846;28;19998;-45
2023/05/08 07:17:44;;;;;;;;;;;;;;;;;;5109824;28;19912;-46
2023/05/08 07:20:10;;;;;;;;;;;;;;;;;;5109158;28;19912;-44
2023/05/08 07:22:36;;;;;;;;;;;;;;;;;;5109966;28;20274;-46
2023/05/08 07:25:02;;;;;;;;;;;;;;;;;;5117040;28;19908;-44
2023/05/08 07:27:28;;;;;;;;;;;;;;;;;;5130061;28;19912;-44
2023/05/08 07:29:56;;;;;;;;;;;;;;;;;;5130082;28;19911;-44
2023/05/08 07:32:22;;;;;;;;;;;;;;;;;;5128739;28;19908;-44
2023/05/08 07:34:48;;;;;;;;;;;;;;;;;;5128327;28;19938;-46
2023/05/08 07:37:14;;;;;;;;;;;;;;;;;;5117191;28;20003;-45
2023/05/08 07:39:40;;;;;;;;;;;;;;;;;;5118435;27;19930;-44
2023/05/08 07:42:06;;;;;;;;;;;;;;;;;;5115368;27;20014;-44
2023/05/08 07:44:35;;;;;;;;;;;;;;;;;;5113575;28;19914;-45
2023/05/08 07:47:00;;;;;;;;;;;;;;;;;;5113364;28;19915;-44
2023/05/08 07:49:26;;;;;;;;;;;;;;;;;;5113616;28;19908;-44
2023/05/08 07:51:52;;;;;;;;;;;;;;;;;;5118752;27;19994;-44
2023/05/08 07:54:18;;;;;;;;;;;;;;;;;;5132777;27;19983;-44
2023/05/08 07:56:44;;;;;;;;;;;;;;;;;;5133866;27;19911;-44
2023/05/08 07:59:10;;;;;;;;;;;;;;;;;;5133466;27;19907;-44
2023/05/08 08:01:36;;;;;;;;;;;;;;;;;;5105660;27;19912;-44
2023/05/08 08:04:02;;;;;;;;;;;;;;;;;;5092607;28;20347;-48
2023/05/08 08:06:29;;;;;;;;;;;;;;;;;;5092631;28;19919;-44
2023/05/08 08:08:55;;;;;;;;;;;;;;;;;;5113093;28;20289;-44
2023/05/08 08:11:21;;;;;;;;;;;;;;;;;;5122265;27;19911;-44
2023/05/08 08:13:47;;;;;;;;;;;;;;;;;;5133479;27;19918;-45
2023/05/08 08:16:13;;;;;;;;;;;;;;;;;;5132263;27;19911;-44
2023/05/08 08:18:39;;;;;;;;;;;;;;;;;;5133367;27;19911;-43
2023/05/08 08:21:06;;;;;;;;;;;;;;;;;;5131623;27;19919;-44
2023/05/08 08:23:32;;;;;;;;;;;;;;;;;;5131452;27;20279;-48
2023/05/08 08:25:58;;;;;;;;;;;;;;;;;;5133020;27;19958;-46
2023/05/08 08:28:24;;;;;;;;;;;;;;;;;;5133079;27;20412;-44
2023/05/08 08:30:50;;;;;;;;;;;;;;;;;;5132374;27;19919;-45
2023/05/08 08:33:16;;;;;;;;;;;;;;;;;;5133157;27;19912;-44
2023/05/08 08:35:42;;;;;;;;;;;;;;;;;;5133021;27;20428;-43
2023/05/08 08:38:08;;;;;;;;;;;;;;;;;;5132957;27;19911;-45
2023/05/08 08:40:34;;;;;;;;;;;;;;;;;;5132949;27;19998;-44
2023/05/08 08:43:00;;;;;;;;;;;;;;;;;;5133013;27;19915;-44
2023/05/08 08:45:26;;;;;;;;;;;;;;;;;;5132791;27;19911;-44
2023/05/08 08:47:52;;;;;;;;;;;;;;;;;;5129737;27;19968;-48
2023/05/08 08:50:18;;;;;;;;;;;;;;;;;;5131568;27;19911;-44
2023/05/08 08:52:44;;;;;;;;;;;;;;;;;;5131445;27;20671;-45
2023/05/08 08:55:10;;;;;;;;;;;;;;;;;;5132460;27;19911;-44
2023/05/08 08:57:36;;;;;;;;;;;;;;;;;;5131519;27;20035;-44
2023/05/08 09:00:03;;;;;;;;;;;;;;;;;;5129339;27;19963;-44
2023/05/08 09:02:30;;;;;;;;;;;;;;;;;;5120716;27;19915;-44
2023/05/08 09:04:56;;;;;;;;;;;;;;;;;;5131057;27;20339;-46
2023/05/08 09:07:21;;;;;;;;;;;;;;;;;;5132130;27;19907;-43
2023/05/08 09:09:47;;;;;;;;;;;;;;;;;;5132267;27;19915;-44
2023/05/08 09:12:13;;;;;;;;;;;;;;;;;;5132065;27;19968;-45
2023/05/08 09:14:39;;;;;;;;;;;;;;;;;;5132078;27;19951;-45
2023/05/08 09:17:05;;;;;;;;;;;;;;;;;;5130989;27;19952;-45
2023/05/08 09:19:31;;;;;;;;;;;;;;;;;;5132233;27;19931;-47
2023/05/08 09:21:57;;;;;;;;;;;;;;;;;;5128012;27;20014;-47
2023/05/08 09:24:23;;;;;;;;;;;;;;;;;;5131801;27;19914;-43
2023/05/08 09:26:49;;;;;;;;;;;;;;;;;;5132155;27;19911;-47
2023/05/08 09:29:15;;;;;;;;;;;;;;;;;;5131806;27;19920;-46
2023/05/08 09:31:41;;;;;;;;;;;;;;;;;;5132237;27;19907;-44
2023/05/08 09:34:07;;;;;;;;;;;;;;;;;;5130935;27;19918;-44
2023/05/08 09:36:33;;;;;;;;;;;;;;;;;;5129985;27;19907;-46
2023/05/08 09:39:00;;;;;;;;;;;;;;;;;;5130555;27;20333;-44
2023/05/08 09:41:27;;;;;;;;;;;;;;;;;;5130375;27;19918;-43
2023/05/08 09:43:53;;;;;;;;;;;;;;;;;;5112183;27;19908;-45
2023/05/08 09:46:21;;;;;;;;;;;;;;;;;;5130796;27;19918;-44
2023/05/08 09:48:46;;;;;;;;;;;;;;;;;;5130556;27;19960;-48
2023/05/08 09:51:12;;;;;;;;;;;;;;;;;;5130452;27;19911;-45
2023/05/08 09:53:38;;;;;;;;;;;;;;;;;;5130494;27;19918;-47
2023/05/08 09:56:05;;;;;;;;;;;;;;;;;;5130302;27;20010;-47
2023/05/08 09:58:31;;;;;;;;;;;;;;;;;;5130260;27;19907;-44
2023/05/08 10:00:59;;;;;;;;;;;;;;;;;;5130425;27;19915;-47
2023/05/08 10:03:25;;;;;;;;;;;;;;;;;;5128531;27;19930;-47
2023/05/08 10:05:52;;;;;;;;;;;;;;;;;;5130201;27;20006;-44
2023/05/08 10:08:18;;;;;;;;;;;;;;;;;;5130274;27;19911;-46
2023/05/08 10:10:43;;;;;;;;;;;;;;;;;;5129890;27;19912;-47
2023/05/08 10:13:09;;;;;;;;;;;;;;;;;;5129938;27;20324;-45
2023/05/08 10:15:35;;;;;;;;;;;;;;;;;;5129977;27;19927;-46
2023/05/08 10:18:03;;;;;;;;;;;;;;;;;;5111356;27;20018;-46
2023/05/08 10:20:29;;;;;;;;;;;;;;;;;;5129954;27;19917;-44
2023/05/08 10:22:55;;;;;;;;;;;;;;;;;;5130243;27;19918;-46
2023/05/08 10:25:21;;;;;;;;;;;;;;;;;;5129725;27;19911;-46
2023/05/08 10:27:47;;;;;;;;;;;;;;;;;;5130032;27;20378;-43
2023/05/08 10:30:14;;;;;;;;;;;;;;;;;;5129936;27;19939;-43
2023/05/08 10:32:40;;;;;;;;;;;;;;;;;;5129895;27;19950;-45
2023/05/08 10:35:06;;;;;;;;;;;;;;;;;;5129739;27;19964;-46
2023/05/08 10:37:32;;;;;;;;;;;;;;;;;;5129587;27;20281;-44
2023/05/08 10:39:58;;;;;;;;;;;;;;;;;;5129715;27;19914;-44
2023/05/08 10:42:23;;;;;;;;;;;;;;;;;;5129486;27;19915;-47
2023/05/08 10:44:49;;;;;;;;;;;;;;;;;;5129977;27;20302;-44
2023/05/08 10:47:15;;;;;;;;;;;;;;;;;;5129514;27;19919;-44
2023/05/08 10:49:41;;;;;;;;;;;;;;;;;;5129572;27;19903;-46
2023/05/08 10:52:08;;;;;;;;;;;;;;;;;;5129197;28;19912;-47
2023/05/08 10:54:35;;;;;;;;;;;;;;;;;;5129566;28;19912;-46
2023/05/08 10:57:01;;;;;;;;;;;;;;;;;;5128970;28;19913;-47
2023/05/08 10:59:28;;;;;;;;;;;;;;;;;;5126873;28;20286;-45
2023/05/08 11:01:55;;;;;;;;;;;;;;;;;;5126014;28;19912;-44
2023/05/08 11:04:21;;;;;;;;;;;;;;;;;;5106682;28;20341;-45
2023/05/08 11:06:47;;;;;;;;;;;;;;;;;;5126297;28;19912;-43
2023/05/08 11:09:13;;;;;;;;;;;;;;;;;;5125158;28;19919;-43
2023/05/08 11:11:39;;;;;;;;;;;;;;;;;;5126110;28;20440;-43
2023/05/08 11:14:06;;;;;;;;;;;;;;;;;;5126609;27;19923;-43
2023/05/08 11:16:32;;;;;;;;;;;;;;;;;;5129436;27;19911;-43
2023/05/08 11:18:58;;;;;;;;;;;;;;;;;;5129835;27;20014;-44
2023/05/08 11:21:24;;;;;;;;;;;;;;;;;;5129883;27;20400;-43
2023/05/08 11:23:51;;;;;;;;;;;;;;;;;;5111641;27;19915;-44
2023/05/08 11:26:17;;;;;;;;;;;;;;;;;;5118702;27;19958;-43
2023/05/08 11:28:42;;;;;;;;;;;;;;;;;;5130612;27;19958;-43
2023/05/08 11:31:08;;;;;;;;;;;;;;;;;;5130220;27;19916;-43
2023/05/08 11:33:36;;;;;;;;;;;;;;;;;;5128946;27;20309;-45
2023/05/08 11:36:02;;;;;;;;;;;;;;;;;;5110596;27;20374;-43
2023/05/08 11:38:28;;;;;;;;;;;;;;;;;;5111226;27;20017;-44
2023/05/08 11:40:54;;;;;;;;;;;;;;;;;;5130036;27;19911;-45
2023/05/08 11:43:20;;;;;;;;;;;;;;;;;;5129795;27;20006;-43
2023/05/08 11:45:46;;;;;;;;;;;;;;;;;;5129112;27;20512;-45
2023/05/08 11:48:12;;;;;;;;;;;;;;;;;;5129959;27;19915;-43
2023/05/08 11:50:39;;;;;;;;;;;;;;;;;;5111025;27;19911;-45
2023/05/08 11:53:05;;;;;;;;;;;;;;;;;;5129768;27;19919;-46
2023/05/08 11:55:31;;;;;;;;;;;;;;;;;;5129268;27;19922;-45
2023/05/08 11:57:57;;;;;;;;;;;;;;;;;;5129387;27;19915;-44
2023/05/08 12:00:23;;;;;;;;;;;;;;;;;;5128572;27;19920;-44
2023/05/08 12:02:50;;;;;;;;;;;;;;;;;;5128819;27;19915;-44
2023/05/08 12:05:16;;;;;;;;;;;;;;;;;;5128661;27;19955;-43
2023/05/08 12:07:43;;;;;;;;;;;;;;;;;;5128418;27;20380;-47
2023/05/08 12:10:09;;;;;;;;;;;;;;;;;;5110398;27;19967;-45
2023/05/08 12:12:34;;;;;;;;;;;;;;;;;;5129468;27;19969;-43
2023/05/08 12:15:00;;;;;;;;;;;;;;;;;;5128247;27;19927;-43
2023/05/08 12:17:26;;;;;;;;;;;;;;;;;;5127633;27;19929;-46
2023/05/08 12:19:52;;;;;;;;;;;;;;;;;;5128954;27;19956;-44
2023/05/08 12:22:18;;;;;;;;;;;;;;;;;;5125637;27;20390;-43
2023/05/08 12:24:44;;;;;;;;;;;;;;;;;;5127265;27;19911;-44
2023/05/08 12:27:10;;;;;;;;;;;;;;;;;;5126512;27;20433;-44
2023/05/08 12:29:36;;;;;;;;;;;;;;;;;;5109888;27;19971;-45
2023/05/08 12:32:02;;;;;;;;;;;;;;;;;;5128500;27;19911;-47
2023/05/08 12:34:28;;;;;;;;;;;;;;;;;;5128500;27;19924;-47
2023/05/08 12:36:54;;;;;;;;;;;;;;;;;;5128338;27;19961;-46
2023/05/08 12:39:20;;;;;;;;;;;;;;;;;;5127846;27;19917;-48
2023/05/08 12:41:46;;;;;;;;;;;;;;;;;;5128622;27;20001;-46
2023/05/08 12:44:12;;;;;;;;;;;;;;;;;;5127001;27;19916;-47
2023/05/08 12:46:39;;;;;;;;;;;;;;;;;;5127723;27;19918;-47
2023/05/08 12:49:09;;;;;;;;;;;;;;;;;;5127462;27;19919;-45
2023/05/08 12:51:35;;;;;;;;;;;;;;;;;;5128678;27;19915;-44
2023/05/08 12:54:01;;;;;;;;;;;;;;;;;;5127554;27;20425;-43
2023/05/08 12:56:26;;;;;;;;;;;;;;;;;;5127259;27;19937;-47
2023/05/08 12:58:53;;;;;;;;;;;;;;;;;;5128328;27;19924;-44
2023/05/08 13:01:19;;;;;;;;;;;;;;;;;;5127401;27;19959;-44
2023/05/08 13:03:45;;;;;;;;;;;;;;;;;;5126631;27;20007;-45
2023/05/08 13:06:11;;;;;;;;;;;;;;;;;;5127736;27;19983;-44
2023/05/08 13:08:37;;;;;;;;;;;;;;;;;;5125206;27;19922;-44
2023/05/08 13:11:04;;;;;;;;;;;;;;;;;;5106678;28;19912;-45
2023/05/08 13:13:31;;;;;;;;;;;;;;;;;;5112785;27;19960;-47
2023/05/08 13:15:56;;;;;;;;;;;;;;;;;;5127238;27;19915;-45
2023/05/08 13:18:22;;;;;;;;;;;;;;;;;;5108024;27;19990;-47
2023/05/08 13:20:48;;;;;;;;;;;;;;;;;;5127325;27;19947;-45
2023/05/08 13:23:14;;;;;;;;;;;;;;;;;;5126992;27;19912;-46
2023/05/08 13:25:40;;;;;;;;;;;;;;;;;;5126093;27;20158;-47
2023/05/08 13:28:06;;;;;;;;;;;;;;;;;;5127103;27;19915;-46
2023/05/08 13:30:33;;;;;;;;;;;;;;;;;;5108006;27;19915;-44
2023/05/08 13:32:59;;;;;;;;;;;;;;;;;;5125976;27;19946;-45
2023/05/08 13:35:27;;;;;;;;;;;;;;;;;;5125413;27;19989;-44
2023/05/08 13:37:53;;;;;;;;;;;;;;;;;;5107497;27;19912;-44
2023/05/08 13:40:18;;;;;;;;;;;;;;;;;;5125982;27;20349;-44
2023/05/08 13:42:44;;;;;;;;;;;;;;;;;;5125998;27;19965;-48
2023/05/08 13:45:13;;;;;;;;;;;;;;;;;;5126412;27;19956;-44
2023/05/08 13:47:38;;;;;;;;;;;;;;;;;;5125921;27;19915;-45
2023/05/08 13:50:04;;;;;;;;;;;;;;;;;;5126291;27;20308;-45
2023/05/08 13:52:30;;;;;;;;;;;;;;;;;;5125674;27;19967;-44
2023/05/08 13:54:57;;;;;;;;;;;;;;;;;;5125433;27;19919;-44
2023/05/08 13:57:23;;;;;;;;;;;;;;;;;;5105941;27;19916;-46
2023/05/08 13:59:50;;;;;;;;;;;;;;;;;;5107862;27;19916;-44
2023/05/08 14:02:16;;;;;;;;;;;;;;;;;;5125479;27;20508;-44
2023/05/08 14:04:42;;;;;;;;;;;;;;;;;;5125990;27;20030;-44
2023/05/08 14:07:08;;;;;;;;;;;;;;;;;;5125950;27;19912;-45
2023/05/08 14:09:33;;;;;;;;;;;;;;;;;;5124673;27;19915;-44
2023/05/08 14:11:59;;;;;;;;;;;;;;;;;;5107425;27;20036;-46
2023/05/08 14:14:27;;;;;;;;;;;;;;;;;;5124324;27;20355;-46
2023/05/08 14:16:53;;;;;;;;;;;;;;;;;;5124816;27;19919;-47
2023/05/08 14:19:19;;;;;;;;;;;;;;;;;;5124060;27;19965;-48
2023/05/08 14:21:45;;;;;;;;;;;;;;;;;;5124522;27;19921;-47
2023/05/08 14:24:11;;;;;;;;;;;;;;;;;;5124598;27;19912;-44
2023/05/08 14:26:37;;;;;;;;;;;;;;;;;;5126243;27;19915;-47
2023/05/08 14:29:02;;;;;;;;;;;;;;;;;;5124459;27;20010;-45
2023/05/08 14:31:28;;;;;;;;;;;;;;;;;;5124406;27;20313;-47
2023/05/08 14:33:54;;;;;;;;;;;;;;;;;;5124867;27;20093;-46
2023/05/08 14:36:20;;;;;;;;;;;;;;;;;;5124644;27;20340;-45
2023/05/08 14:38:46;;;;;;;;;;;;;;;;;;5105262;28;20400;-44
2023/05/08 14:41:13;;;;;;;;;;;;;;;;;;5124566;27;19915;-46
2023/05/08 14:43:41;;;;;;;;;;;;;;;;;;5124734;27;19918;-45
2023/05/08 14:46:07;;;;;;;;;;;;;;;;;;5122144;27;20385;-45
2023/05/08 14:48:33;;;;;;;;;;;;;;;;;;5123959;27;20061;-45
2023/05/08 14:50:59;;;;;;;;;;;;;;;;;;5125731;27;20337;-48
2023/05/08 14:53:25;;;;;;;;;;;;;;;;;;5125103;28;20413;-47
2023/05/08 14:55:51;;;;;;;;;;;;;;;;;;5124832;28;20378;-46
2023/05/08 14:58:17;;;;;;;;;;;;;;;;;;5126615;28;20241;-45
2023/05/08 15:00:44;;;;;;;;;;;;;;;;;;5126587;28;19937;-46
2023/05/08 15:03:10;;;;;;;;;;;;;;;;;;5110652;28;20425;-46
2023/05/08 15:05:35;;;;;;;;;;;;;;;;;;5115303;28;19915;-46
2023/05/08 15:08:01;;;;;;;;;;;;;;;;;;5122502;28;19915;-47
2023/05/08 15:10:28;;;;;;;;;;;;;;;;;;5126618;28;19997;-48
2023/05/08 15:12:54;;;;;;;;;;;;;;;;;;5126215;28;20294;-46
2023/05/08 15:15:19;;;;;;;;;;;;;;;;;;5108186;28;19929;-46
2023/05/08 15:17:45;;;;;;;;;;;;;;;;;;5126081;28;20004;-45
2023/05/08 15:20:11;;;;;;;;;;;;;;;;;;5125869;28;20052;-45
2023/05/08 15:22:39;;;;;;;;;;;;;;;;;;5125927;28;20478;-44
2023/05/08 15:25:05;;;;;;;;;;;;;;;;;;5127800;28;19919;-47
2023/05/08 15:27:31;;;;;;;;;;;;;;;;;;5127864;28;19907;-48
2023/05/08 15:29:57;;;;;;;;;;;;;;;;;;5126781;28;19960;-45
2023/05/08 15:32:23;;;;;;;;;;;;;;;;;;5126091;28;19911;-47
2023/05/08 15:34:49;;;;;;;;;;;;;;;;;;5126234;28;19968;-47
2023/05/08 15:37:16;;;;;;;;;;;;;;;;;;5125850;28;19912;-45
2023/05/08 15:39:42;;;;;;;;;;;;;;;;;;5107545;28;20545;-48
2023/05/08 15:42:08;;;;;;;;;;;;;;;;;;5125603;28;19941;-46
2023/05/08 15:44:33;;;;;;;;;;;;;;;;;;5125059;28;19915;-46
2023/05/08 15:47:00;;;;;;;;;;;;;;;;;;5088181;28;20378;-44
2023/05/08 15:49:26;;;;;;;;;;;;;;;;;;5116398;28;19915;-48
2023/05/08 15:51:52;;;;;;;;;;;;;;;;;;5125849;28;19943;-46
2023/05/08 15:54:18;;;;;;;;;;;;;;;;;;5126355;28;19954;-45
2023/05/08 15:56:44;;;;;;;;;;;;;;;;;;5125006;28;19912;-45
2023/05/08 15:59:10;;;;;;;;;;;;;;;;;;5124456;28;19919;-48
2023/05/08 16:01:37;;;;;;;;;;;;;;;;;;5126494;27;19912;-46
2023/05/08 16:04:03;;;;;;;;;;;;;;;;;;5126487;27;19915;-47
2023/05/08 16:06:29;;;;;;;;;;;;;;;;;;5128762;27;19918;-48
2023/05/08 16:08:55;;;;;;;;;;;;;;;;;;5130796;27;19919;-49
2023/05/08 16:11:21;;;;;;;;;;;;;;;;;;5115454;27;19960;-45
2023/05/08 16:13:47;;;;;;;;;;;;;;;;;;5121081;27;20616;-46
2023/05/08 16:16:13;;;;;;;;;;;;;;;;;;5130305;27;19916;-45
2023/05/08 16:18:39;;;;;;;;;;;;;;;;;;5131712;27;19914;-48
2023/05/08 16:21:05;;;;;;;;;;;;;;;;;;5131573;27;19968;-46
2023/05/08 16:23:31;;;;;;;;;;;;;;;;;;5127471;27;20006;-48
2023/05/08 16:25:57;;;;;;;;;;;;;;;;;;5128269;27;19930;-48
2023/05/08 16:28:23;;;;;;;;;;;;;;;;;;5128827;27;19916;-45
2023/05/08 16:30:49;;;;;;;;;;;;;;;;;;5129288;27;19911;-47
2023/05/08 16:33:15;;;;;;;;;;;;;;;;;;5129229;27;19911;-46
2023/05/08 16:35:41;;;;;;;;;;;;;;;;;;5128639;27;20353;-46
2023/05/08 16:38:07;;;;;;;;;;;;;;;;;;5128903;27;19907;-45
2023/05/08 16:40:33;;;;;;;;;;;;;;;;;;5129739;27;19980;-46
2023/05/08 16:42:59;;;;;;;;;;;;;;;;;;5129227;27;19916;-47
2023/05/08 16:45:25;;;;;;;;;;;;;;;;;;5128870;27;19926;-47
2023/05/08 16:47:50;;;;;;;;;;;;;;;;;;5111118;27;20393;-47
2023/05/08 16:50:16;;;;;;;;;;;;;;;;;;5129690;27;19947;-48
2023/05/08 16:52:42;;;;;;;;;;;;;;;;;;5128998;27;19918;-45
2023/05/08 16:55:08;;;;;;;;;;;;;;;;;;5110369;27;20032;-47
2023/05/08 16:57:34;;;;;;;;;;;;;;;;;;5128261;27;19908;-46
2023/05/08 17:00:00;;;;;;;;;;;;;;;;;;5127432;27;19916;-46
2023/05/08 17:02:26;;;;;;;;;;;;;;;;;;5128509;27;19920;-48
2023/05/08 17:04:52;;;;;;;;;;;;;;;;;;5120836;27;19950;-44
2023/05/08 17:07:18;;;;;;;;;;;;;;;;;;5122344;27;20002;-45
2023/05/08 17:09:44;;;;;;;;;;;;;;;;;;5127802;27;19968;-44
2023/05/08 17:12:10;;;;;;;;;;;;;;;;;;5127962;27;19915;-44
2023/05/08 17:14:38;;;;;;;;;;;;;;;;;;5108657;27;19949;-45
2023/05/08 17:17:05;;;;;;;;;;;;;;;;;;5126600;27;19911;-47
2023/05/08 17:19:30;;;;;;;;;;;;;;;;;;5118418;27;19919;-46
2023/05/08 17:21:56;;;;;;;;;;;;;;;;;;5126077;27;19972;-48
2023/05/08 17:24:23;;;;;;;;;;;;;;;;;;5126770;27;19912;-46
2023/05/08 17:26:49;;;;;;;;;;;;;;;;;;5108062;27;19955;-48
2023/05/08 17:29:16;;;;;;;;;;;;;;;;;;5126721;27;20368;-46
2023/05/08 17:31:43;;;;;;;;;;;;;;;;;;5126554;27;20002;-48
2023/05/08 17:34:09;;;;;;;;;;;;;;;;;;5126381;27;19995;-47
2023/05/08 17:36:35;;;;;;;;;;;;;;;;;;5127371;27;20175;-46
2023/05/08 17:39:01;;;;;;;;;;;;;;;;;;5126140;27;20313;-45
2023/05/08 17:41:26;;;;;;;;;;;;;;;;;;5126557;27;19915;-48
2023/05/08 17:43:53;;;;;;;;;;;;;;;;;;5106454;27;20392;-47
2023/05/08 17:46:19;;;;;;;;;;;;;;;;;;5126231;27;19917;-48
2023/05/08 17:48:45;;;;;;;;;;;;;;;;;;5126058;27;20004;-45
2023/05/08 17:51:12;;;;;;;;;;;;;;;;;;5125555;27;20423;-46
2023/05/08 17:53:38;;;;;;;;;;;;;;;;;;5104548;27;19929;-45
2023/05/08 17:56:04;;;;;;;;;;;;;;;;;;5126316;27;19980;-44
2023/05/08 17:58:30;;;;;;;;;;;;;;;;;;5106968;27;20518;-48
2023/05/08 18:00:56;;;;;;;;;;;;;;;;;;5126471;27;20464;-48
2023/05/08 18:03:22;;;;;;;;;;;;;;;;;;5125506;27;20273;-46
2023/05/08 18:05:47;;;;;;;;;;;;;;;;;;5125983;27;19907;-46
2023/05/08 18:08:13;;;;;;;;;;;;;;;;;;5125854;27;19949;-46
2023/05/08 18:10:39;;;;;;;;;;;;;;;;;;5105461;27;19941;-45
2023/05/08 18:13:05;;;;;;;;;;;;;;;;;;5125586;27;19926;-48
2023/05/08 18:15:34;;;;;;;;;;;;;;;;;;5128411;27;19915;-44
2023/05/08 18:18:00;;;;;;;;;;;;;;;;;;5127003;27;19908;-44
2023/05/08 18:20:26;;;;;;;;;;;;;;;;;;5118673;27;19911;-47
2023/05/08 18:22:51;;;;;;;;;;;;;;;;;;5128138;27;19922;-46
2023/05/08 18:25:17;;;;;;;;;;;;;;;;;;5136672;27;19917;-46
2023/05/08 18:27:46;;;;;;;;;;;;;;;;;;5124900;27;19964;-46
2023/05/08 18:30:12;;;;;;;;;;;;;;;;;;5106094;27;19916;-45
2023/05/08 18:32:37;;;;;;;;;;;;;;;;;;5130921;27;19956;-45
2023/05/08 18:35:04;;;;;;;;;;;;;;;;;;5125521;27;20327;-48
2023/05/08 18:37:30;;;;;;;;;;;;;;;;;;5125415;27;19963;-45
2023/05/08 18:39:56;;;;;;;;;;;;;;;;;;5124836;27;19962;-44
2023/05/08 18:42:22;;;;;;;;;;;;;;;;;;5125965;27;19911;-46
2023/05/08 18:44:48;;;;;;;;;;;;;;;;;;5107144;27;19911;-47
2023/05/08 18:47:15;;;;;;;;;;;;;;;;;;5125311;27;19919;-47
2023/05/08 18:49:42;;;;;;;;;;;;;;;;;;5125383;27;20354;-49
2023/05/08 18:52:09;;;;;;;;;;;;;;;;;;5125557;27;19956;-46
2023/05/08 18:54:35;;;;;;;;;;;;;;;;;;5126147;28;20281;-44
2023/05/08 18:57:01;;;;;;;;;;;;;;;;;;5125288;28;19922;-45
2023/05/08 18:59:27;;;;;;;;;;;;;;;;;;5125138;28;20056;-46
2023/05/08 19:01:54;;;;;;;;;;;;;;;;;;5125127;28;19912;-46
2023/05/08 19:04:20;;;;;;;;;;;;;;;;;;5117848;27;19919;-46
2023/05/08 19:06:46;;;;;;;;;;;;;;;;;;5118266;27;19919;-47
2023/05/08 19:09:12;;;;;;;;;;;;;;;;;;5123157;28;19972;-46
2023/05/08 19:11:37;;;;;;;;;;;;;;;;;;5123628;28;19911;-44
2023/05/08 19:14:03;;;;;;;;;;;;;;;;;;5121693;28;19919;-45
2023/05/08 19:16:29;;;;;;;;;;;;;;;;;;5125431;28;19954;-45
2023/05/08 19:18:55;;;;;;;;;;;;;;;;;;5124553;28;19916;-49
2023/05/08 19:21:21;;;;;;;;;;;;;;;;;;5124578;28;20000;-45
2023/05/08 19:23:48;;;;;;;;;;;;;;;;;;5123388;28;19947;-47
2023/05/08 19:26:14;;;;;;;;;;;;;;;;;;5122243;28;19960;-45
2023/05/08 19:28:40;;;;;;;;;;;;;;;;;;5124522;28;19916;-48
2023/05/08 19:31:06;;;;;;;;;;;;;;;;;;5124687;28;20429;-44
2023/05/08 19:33:32;;;;;;;;;;;;;;;;;;5125994;28;19930;-46
2023/05/08 19:35:57;;;;;;;;;;;;;;;;;;5125139;27;19916;-47
2023/05/08 19:38:23;;;;;;;;;;;;;;;;;;5124883;27;19962;-45
2023/05/08 19:40:49;;;;;;;;;;;;;;;;;;5128257;27;19998;-45
2023/05/08 19:43:15;;;;;;;;;;;;;;;;;;5128208;27;19920;-47
2023/05/08 19:45:41;;;;;;;;;;;;;;;;;;5128884;27;20314;-48
2023/05/08 19:48:07;;;;;;;;;;;;;;;;;;5128756;27;19994;-45
2023/05/08 19:50:34;;;;;;;;;;;;;;;;;;5125638;27;19912;-48
2023/05/08 19:53:01;;;;;;;;;;;;;;;;;;5115627;27;19965;-48
2023/05/08 19:55:28;;;;;;;;;;;;;;;;;;5122695;27;19920;-46
2023/05/08 19:57:53;;;;;;;;;;;;;;;;;;5127438;27;19918;-48
2023/05/08 20:00:19;;;;;;;;;;;;;;;;;;5124644;27;19915;-48
2023/05/08 20:02:45;;;;;;;;;;;;;;;;;;5122987;27;19915;-48
2023/05/08 20:05:12;;;;;;;;;;;;;;;;;;5127783;27;20008;-46
2023/05/08 20:07:38;;;;;;;;;;;;;;;;;;5126230;27;19911;-45
2023/05/08 20:10:04;;;;;;;;;;;;;;;;;;5122414;27;20467;-48
2023/05/08 20:12:30;;;;;;;;;;;;;;;;;;5121275;27;19923;-47
2023/05/08 20:14:56;;;;;;;;;;;;;;;;;;5096322;27;19916;-45
2023/05/08 20:17:22;;;;;;;;;;;;;;;;;;5127759;27;20285;-44
2023/05/08 20:19:48;;;;;;;;;;;;;;;;;;5126041;27;19907;-45
2023/05/08 20:22:13;;;;;;;;;;;;;;;;;;5125985;27;19918;-46
2023/05/08 20:24:39;;;;;;;;;;;;;;;;;;5127571;27;19923;-45
2023/05/08 20:27:06;;;;;;;;;;;;;;;;;;5128520;27;19998;-45
2023/05/08 20:29:32;;;;;;;;;;;;;;;;;;5110533;27;20231;-47
2023/05/08 20:31:58;;;;;;;;;;;;;;;;;;5125962;27;19918;-44
2023/05/08 20:34:24;;;;;;;;;;;;;;;;;;5128220;27;19912;-46
2023/05/08 20:36:51;;;;;;;;;;;;;;;;;;5127578;27;19912;-45
2023/05/08 20:39:17;;;;;;;;;;;;;;;;;;5107177;27;20378;-45
2023/05/08 20:41:43;;;;;;;;;;;;;;;;;;5107480;27;19912;-44
2023/05/08 20:44:11;;;;;;;;;;;;;;;;;;5107329;28;19914;-47
2023/05/08 20:46:39;;;;;;;;;;;;;;;;;;5106656;27;19911;-48
2023/05/08 20:49:05;;;;;;;;;;;;;;;;;;5107638;28;19912;-44
2023/05/08 20:51:31;;;;;;;;;;;;;;;;;;5107397;28;19912;-48
2023/05/08 20:53:57;;;;;;;;;;;;;;;;;;5106585;28;20393;-44
2023/05/08 20:56:23;;;;;;;;;;;;;;;;;;5107006;27;19958;-44
2023/05/08 20:58:49;;;;;;;;;;;;;;;;;;5106881;28;20053;-46
2023/05/08 21:01:16;;;;;;;;;;;;;;;;;;5088463;28;19970;-44
2023/05/08 21:03:43;;;;;;;;;;;;;;;;;;5088472;28;19956;-44
2023/05/08 21:06:09;;;;;;;;;;;;;;;;;;5113456;27;19911;-48
2023/05/08 21:08:35;;;;;;;;;;;;;;;;;;5127779;27;19924;-47
2023/05/08 21:11:02;;;;;;;;;;;;;;;;;;5108779;27;20452;-45
2023/05/08 21:13:29;;;;;;;;;;;;;;;;;;5127247;27;19965;-45
2023/05/08 21:15:56;;;;;;;;;;;;;;;;;;5094204;27;19972;-46
2023/05/08 21:18:22;;;;;;;;;;;;;;;;;;5126888;27;20342;-47
2023/05/08 21:20:51;;;;;;;;;;;;;;;;;;5126096;27;19990;-47
2023/05/08 21:23:17;;;;;;;;;;;;;;;;;;5127090;27;19907;-48
2023/05/08 21:25:43;;;;;;;;;;;;;;;;;;5125656;27;20416;-46
2023/05/08 21:28:09;;;;;;;;;;;;;;;;;;5127340;27;20052;-47
2023/05/08 21:30:34;;;;;;;;;;;;;;;;;;5127694;27;19946;-46
2023/05/08 21:33:01;;;;;;;;;;;;;;;;;;5126502;27;20438;-46
2023/05/08 21:35:29;;;;;;;;;;;;;;;;;;5107364;27;19911;-46
2023/05/08 21:37:55;;;;;;;;;;;;;;;;;;5126517;27;19912;-45
2023/05/08 21:40:22;;;;;;;;;;;;;;;;;;5117863;27;20521;-47
2023/05/08 21:42:48;;;;;;;;;;;;;;;;;;5106524;27;19912;-45